Updated15/11/2019 5:46am 
 

Nearby Airport METAR Reports

 

KVSF - Springfield, Vermont, USA
Distance from station: WSW 8mi, 12km
Updated: 11/15/2019 4:54am
Overcast
Overcast
 Wind from calm
Wind: Calm
Temperature: 27°F , -3°C
Dew Point: 21°F , -6°C
Humidity: 80%
Barometer: 30.13 inHg , 1020.3 hPa
Clouds: Overcast
Visibility: 10 miles , 16 km
Cloud details: Overcast 5500 ft
2019/11/15 09:54 KVSF 150954Z AUTO 00000KT 10SM OVC055 M03/M06 A3013 RMK AO2 SLP211 T10331056
KLEB - Lebanon, New Hampshire, USA
Distance from station: N 18mi, 29km
Updated: 11/15/2019 4:53am
Overcast
Overcast
 Wind from calm
Wind: Calm
Temperature: 27°F , -3°C
Dew Point: 21°F , -6°C
Humidity: 80%
Barometer: 30.10 inHg , 1019.3 hPa
Clouds: Overcast
Visibility: 10 miles , 16 km
Cloud details: Overcast 5000 ft
2019/11/15 09:53 KLEB 150953Z AUTO 00000KT 10SM OVC050 M03/M06 A3010 RMK AO2 SLP204 T10281056
KRUT - Rutland State, Vermont, USA
Distance from station: WNW 31mi, 50km
Updated: 11/15/2019 4:56am
Overcast
Overcast
 Wind from varies
Wind: varies 5 mph , 7 km/h
Temperature: 36°F , 2°C
Wind Chill: 32°F , 0°C
Dew Point: 19°F , -7°C
Humidity: 52%
Barometer: 30.12 inHg , 1020 hPa
Clouds: Overcast
Visibility: 10 miles , 16 km
Cloud details: Overcast 4600 ft
2019/11/15 09:56 KRUT 150956Z AUTO VRB04KT 10SM OVC046 02/M07 A3012 RMK AO2 SLP201 T00171072 FZRANO $
 
KEEN - Keene/Dillant, New Hampshire, USA
Distance from station: S 34mi, 55km
Updated: 11/15/2019 4:56am
Partly cloudy
Partly cloudy
 Wind from calm
Wind: Calm
Temperature: 19°F , -7°C
Dew Point: 19°F , -7°C
Humidity: 100%
Barometer: 30.16 inHg , 1021.3 hPa
Clouds: Partly cloudy
Visibility: 10 miles , 16 km
Cloud details: Partly cloudy 5000 ft
2019/11/15 09:56 KEEN 150956Z AUTO 00000KT 10SM SCT050 M07/M07 A3016 RMK AO2 SLP226 T10671072 FZRANO $
K1P1 - Plymouth, New Hampshire, USA
Distance from station: NE 42mi, 67km
Updated: 11/15/2019 5:35am
Overcast
Overcast
 Wind from calm
Wind: Calm
Temperature: 23°F , -5°C
Dew Point: 21°F , -6°C
Humidity: 93%
Barometer: 30.13 inHg , 1020.3 hPa
Clouds: Overcast
Visibility: 10 miles , 16 km
Cloud details: Overcast 5000 ft
2019/11/15 10:35 K1P1 151035Z AUTO 00000KT 10SM OVC050 M05/M06 A3013 RMK AO2 T10511059
KAFN - Jaffrey, New Hampshire, USA
Distance from station: SSE 44mi, 70km
Updated: 11/15/2019 4:52am
Clear
Clear
 Wind from calm
Wind: Calm
Temperature: 21°F , -6°C
Dew Point: 18°F , -8°C
Humidity: 86%
Barometer: 30.13 inHg , 1020.3 hPa
Clouds: Clear
Visibility: 10 miles , 16 km
2019/11/15 09:52 KAFN 150952Z AUTO 00000KT 10SM CLR M06/M08 A3013 RMK AO2 SLP223 I1000 T10611083
 
KCON - Concord, New Hampshire, USA
Distance from station: ESE 45mi, 73km
Updated: 11/15/2019 4:51am
Clear
Clear
 Wind from calm
Wind: Calm
Temperature: 21°F , -6°C
Dew Point: 18°F , -8°C
Humidity: 86%
Barometer: 30.16 inHg , 1021.3 hPa
Clouds: Clear
Visibility: 10 miles , 16 km
2019/11/15 09:51 KCON 150951Z AUTO 00000KT 10SM CLR M06/M08 A3016 RMK AO2 SLP218 T10611083
KLCI - Laconia Muni, New Hampshire, USA
Distance from station: ENE 49mi, 80km
Updated: 11/15/2019 4:56am
Overcast
Overcast
 Wind from W
Wind: W 8 mph , 13 km/h
Temperature: 28°F , -2°C
Wind Chill: 20°F , -7°C
Dew Point: 25°F , -4°C
Humidity: 86%
Barometer: 30.13 inHg , 1020.3 hPa
Clouds: Overcast
Visibility: 10 miles , 16 km
Cloud details: Overcast 5000 ft
2019/11/15 09:56 KLCI 150956Z AUTO 26007KT 10SM OVC050 M02/M04 A3013 RMK AO2 SLP210 T10171044 FZRANO
KDDH - Bennington, Vermont, USA
Distance from station: SW 55mi, 89km
Updated: 11/15/2019 4:54am
Mostly cloudy
Mostly cloudy
 Wind from SSW
Wind: SSW 6 mph , 9 km/h
Temperature: 34°F , 1°C
Wind Chill: 29°F , -2°C
Dew Point: 19°F , -7°C
Humidity: 56%
Barometer: 30.14 inHg , 1020.7 hPa
Clouds: Mostly cloudy
Visibility: 10 miles , 16 km
Cloud details: Mostly cloudy 5000 ft
2019/11/15 09:54 KDDH 150954Z AUTO 21005KT 10SM BKN050 01/M07 A3014 RMK AO2 SLP213 T00111072
 
K6B0 - Middlebury, Vermont, USA
Distance from station: NW 56mi, 90km
Updated: 11/15/2019 5:37am
Overcast
Overcast
 Wind from SSE
Wind: SSE 12 mph , 19 km/h
Temperature: 34°F , 1°C
Wind Chill: 25°F , -4°C
Dew Point: 19°F , -7°C
Humidity: 56%
Barometer: 30.09 inHg , 1019 hPa
Clouds: Overcast
Visibility: 10 miles , 16 km
Cloud details: Overcast 4600 ft
2019/11/15 10:37 K6B0 151037Z AUTO 16010KT 10SM OVC046 01/M07 A3009 RMK AO2 T00111067
KMHT - Manchester, New Hampshire, USA
Distance from station: ESE 56mi, 90km
Updated: 11/15/2019 4:53am
Clear
Clear
 Wind from calm
Wind: Calm
Temperature: 27°F , -3°C
Dew Point: 21°F , -6°C
Humidity: 80%
Barometer: 30.16 inHg , 1021.3 hPa
Clouds: Clear
Visibility: 10 miles , 16 km
2019/11/15 09:53 KMHT 150953Z 00000KT 10SM CLR M03/M06 A3016 RMK AO2 SLP232 T10331061
KORE - Orange, Massachusetts, USA
Distance from station: S 56mi, 90km
Updated: 11/15/2019 4:52am
Clear
Clear
 Wind from NW
Wind: NW 3 mph , 6 km/h
Temperature: 21°F , -6°C
Dew Point: 19°F , -7°C
Humidity: 93%
Barometer: 30.18 inHg , 1022 hPa
Clouds: Clear
Visibility: 9 miles , 14 km
2019/11/15 09:52 KORE 150952Z AUTO 31003KT 9SM CLR M06/M07 A3018 RMK AO2 SLP228 I1000 T10561072
 
KMPV - Montpelier/Barre, Vermont, USA
Distance from station: N 58mi, 93km
Updated: 11/15/2019 4:51am
Overcast
Overcast
 Wind from SSE
Wind: SSE 13 mph , 20 km/h
Temperature: 30°F , -1°C
Wind Chill: 20°F , -7°C
Dew Point: 19°F , -7°C
Humidity: 64%
Barometer: 30.09 inHg , 1019 hPa
Clouds: Overcast
Visibility: 10 miles , 16 km
Cloud details: Overcast 4100 ft
2019/11/15 09:51 KMPV 150951Z AUTO 16011KT 10SM OVC041 M01/M07 A3009 RMK AO2 SLP205 T10111067 $
KASH - Nashua/Boire Fld, New Hampshire, USA
Distance from station: SE 59mi, 95km
Updated: 11/15/2019 4:56am
Clear
Clear
 Wind from calm
Wind: Calm
Temperature: 19°F , -7°C
Dew Point: 18°F , -8°C
Humidity: 93%
Barometer: 30.18 inHg , 1022 hPa
Clouds: Clear
Visibility: 10 miles , 16 km
2019/11/15 09:56 KASH 150956Z AUTO 00000KT 10SM CLR M07/M08 A3018 RMK AO2 SLP229 T10721078
KAQW - North Adams, Massachusetts, USA
Distance from station: SW 62mi, 99km
Updated: 11/15/2019 4:52am
Overcast
Overcast
 Wind from WNW
Wind: WNW 3 mph , 6 km/h
Temperature: 34°F , 1°C
Dew Point: 21°F , -6°C
Humidity: 60%
Barometer: 30.15 inHg , 1021 hPa
Clouds: Overcast
Visibility: 10 miles , 16 km
Cloud details: Overcast 5000 ft
2019/11/15 09:52 KAQW 150952Z AUTO 30003KT 10SM OVC050 01/M06 A3015 RMK AO2 SLP219 T00061061 TSNO $
 
KGFL - Glens Falls, New York, USA
Distance from station: W 63mi, 101km
Updated: 11/15/2019 4:53am
Overcast
Overcast
 Wind from SSW
Wind: SSW 8 mph , 13 km/h
Temperature: 32°F , 0°C
Wind Chill: 25°F , -4°C
Dew Point: 21°F , -6°C
Humidity: 64%
Barometer: 30.14 inHg , 1020.7 hPa
Clouds: Overcast
Visibility: 10 miles , 16 km
Cloud details: Overcast 5000 ft
2019/11/15 09:53 KGFL 150953Z AUTO 20007KT 10SM OVC050 00/M06 A3014 RMK AO2 SLP215 T00001061
KFIT - Fitchburg, Massachusetts, USA
Distance from station: SSE 65mi, 105km
Updated: 11/15/2019 4:52am
Clear
Clear
 Wind from SW
Wind: SW 5 mph , 7 km/h
Temperature: 34°F , 1°C
Wind Chill: 29°F , -2°C
Dew Point: 19°F , -7°C
Humidity: 56%
Barometer: 30.18 inHg , 1022 hPa
Clouds: Clear
Visibility: 10 miles , 16 km
2019/11/15 09:52 KFIT 150952Z AUTO 22004KT 10SM CLR 01/M07 A3018 RMK AO2 SLP224 T00061067 $
KDAW - Rochester, New Hampshire, USA
Distance from station: E 73mi, 118km
Updated: 11/15/2019 4:51am
Clear
Clear
 Wind from calm
Wind: Calm
Temperature: 27°F , -3°C
Dew Point: 21°F , -6°C
Humidity: 80%
Barometer: 30.14 inHg , 1020.7 hPa
Clouds: Clear
Visibility: 10 miles , 16 km
2019/11/15 09:51 KDAW 150951Z AUTO 00000KT 10SM CLR M03/M06 A3014 RMK AO2 SLP208 T10281061
 
K1V4 - St. Johnsbury, Vermont, USA
Distance from station: NNE 74mi, 119km
Updated: 11/15/2019 4:54am

 
Temperature: 25°F , -4°C
Dew Point: 23°F , -5°C
Humidity: 93%
Barometer: 30.06 inHg , 1017.9 hPa
2019/11/15 09:54 K1V4 150954Z AUTO M04/M05 A3006 RMK AO1 SLP196 T10391050
KLWM - Lawrence, Massachusetts, USA
Distance from station: SE 77mi, 124km
Updated: 11/15/2019 4:54am
Clear
Clear
 Wind from SSW
Wind: SSW 5 mph , 7 km/h
Temperature: 27°F , -3°C
Wind Chill: 21°F , -6°C
Dew Point: 25°F , -4°C
Humidity: 93%
Barometer: 30.20 inHg , 1022.7 hPa
Clouds: Clear
Visibility: 10 miles , 16 km
2019/11/15 09:54 KLWM 150954Z AUTO 20004KT 10SM CLR M03/M04 A3020 RMK AO2 SLP228 T10281044



Flag Counter
free counter page views since 4/29/2009